Time;durP1;ratioP1;P1;durP2;ratioP2;P2;SDS_P1;SDS_P2;PMS_P1;PMS_P2;Temp;Humidity;BMP_temperature;BMP_pressure;BME280_temperature;BME280_humidity;BME280_pressure;Samples;Min_cycle;Max_cycle;Signal;HPM_P1;HPM_P2
2024/04/07 00:02:16;;;;;;;1.08;0.30;;;;;;;13.70;46.55;100768.38;5013243;28;20047;-69
2024/04/07 00:04:42;;;;;;;1.48;0.45;;;;;;;13.51;47.27;100776.34;5008832;28;20060;-70
2024/04/07 00:07:08;;;;;;;1.58;0.60;;;;;;;13.32;47.59;100773.03;5008718;28;20049;-70
2024/04/07 00:09:37;;;;;;;2.83;0.80;;;;;;;13.16;48.27;100767.75;5014293;28;20036;-69
2024/04/07 00:12:08;;;;;;;3.25;0.50;;;;;;;13.09;48.22;100771.63;5004305;28;20482;-68
2024/04/07 00:14:41;;;;;;;2.05;0.50;;;;;;;13.08;48.03;100770.78;5012726;28;20048;-69
2024/04/07 00:17:07;;;;;;;9.25;1.05;;;;;;;13.08;48.14;100776.03;5007796;28;20044;-69
2024/04/07 00:19:33;;;;;;;3.63;1.17;;;;;;;12.95;48.90;100768.88;5014809;28;20075;-70
2024/04/07 00:21:59;;;;;;;5.00;0.70;;;;;;;12.93;48.71;100765.47;5003742;28;20781;-69
2024/04/07 00:24:24;;;;;;;2.72;0.60;;;;;;;12.97;48.50;100757.38;5016255;28;20127;-70
2024/04/07 00:26:50;;;;;;;2.25;0.63;;;;;;;12.98;48.24;100748.59;5007015;28;20151;-69
2024/04/07 00:29:16;;;;;;;4.00;0.70;;;;;;;12.97;48.81;100739.00;5016372;28;20044;-68
2024/04/07 00:31:41;;;;;;;2.58;0.68;;;;;;;13.03;48.75;100729.97;5011668;28;20041;-72
2024/04/07 00:34:07;;;;;;;3.83;0.50;;;;;;;12.99;49.04;100723.19;5023131;28;20126;-70
2024/04/07 00:36:33;;;;;;;3.50;0.73;;;;;;;13.00;48.58;100712.59;5013012;28;20098;-69
2024/04/07 00:38:59;;;;;;;2.35;0.30;;;;;;;13.05;48.03;100723.72;5003532;28;20598;-69
2024/04/07 00:41:24;;;;;;;3.85;0.70;;;;;;;13.04;48.16;100727.25;4998507;28;20040;-69
2024/04/07 00:43:49;;;;;;;1.60;0.70;;;;;;;13.03;48.25;100740.47;5002912;28;20526;-69
2024/04/07 00:46:16;;;;;;;2.38;0.68;;;;;;;12.89;48.41;100749.03;5013502;28;20024;-69
2024/04/07 00:48:42;;;;;;;3.35;0.60;;;;;;;12.77;48.76;100736.56;5010656;28;20525;-69
2024/04/07 00:51:09;;;;;;;3.45;0.65;;;;;;;12.65;49.04;100746.72;5006877;28;20132;-70
2024/04/07 00:53:34;;;;;;;4.68;0.70;;;;;;;12.63;48.60;100745.97;5010861;28;20045;-69
2024/04/07 00:56:00;;;;;;;3.35;0.60;;;;;;;12.49;49.08;100735.31;5005289;28;20071;-69
2024/04/07 00:58:25;;;;;;;2.58;0.60;;;;;;;12.44;49.46;100732.06;5011807;28;20838;-69
2024/04/07 01:00:51;;;;;;;4.53;0.50;;;;;;;12.49;49.30;100733.56;5003410;28;20041;-69
2024/04/07 01:03:17;;;;;;;2.30;0.70;;;;;;;12.53;49.47;100744.72;5017614;28;20029;-69
2024/04/07 01:05:44;;;;;;;3.70;0.85;;;;;;;12.53;49.79;100747.34;5012380;28;20027;-69
2024/04/07 01:08:16;;;;;;;5.63;0.80;;;;;;;12.49;50.04;100748.41;5006671;28;20530;-71
2024/04/07 01:10:43;;;;;;;1.42;0.55;;;;;;;12.48;49.73;100754.59;5030910;28;20056;-70
2024/04/07 01:13:10;;;;;;;1.98;0.60;;;;;;;12.47;49.62;100755.53;5008613;28;20709;-70
2024/04/07 01:15:36;;;;;;;1.65;0.40;;;;;;;12.39;49.66;100757.66;5007355;28;20525;-69
2024/04/07 01:18:05;;;;;;;3.25;1.20;;;;;;;12.31;50.38;100759.81;5025155;28;20171;-70
2024/04/07 01:20:32;;;;;;;1.40;0.45;;;;;;;12.20;50.25;100760.34;5017139;28;20276;-68
2024/04/07 01:22:58;;;;;;;4.97;0.63;;;;;;;12.06;50.75;100748.75;5011821;28;20099;-68
2024/04/07 01:25:23;;;;;;;2.80;0.98;;;;;;;12.01;50.92;100745.50;5014766;28;20044;-68
2024/04/07 01:27:57;;;;;;;1.27;0.50;;;;;;;12.06;50.81;100750.53;5011080;28;20083;-69
2024/04/07 01:30:23;;;;;;;2.83;0.50;;;;;;;12.11;50.71;100750.31;5016776;28;20561;-69
2024/04/07 01:32:52;;;;;;;5.35;0.85;;;;;;;12.18;51.04;100751.69;5014011;28;20287;-67
2024/04/07 01:35:18;;;;;;;2.50;1.10;;;;;;;12.27;50.42;100756.50;5014412;28;20037;-66
2024/04/07 01:37:43;;;;;;;2.40;0.63;;;;;;;12.18;50.45;100763.03;5013148;28;20044;-68
2024/04/07 01:40:12;;;;;;;1.38;0.52;;;;;;;12.14;50.90;100761.50;5009025;28;21144;-68
2024/04/07 01:42:39;;;;;;;2.25;0.50;;;;;;;12.17;50.77;100758.72;5014691;28;20048;-67
2024/04/07 01:45:08;;;;;;;6.32;1.02;;;;;;;12.10;50.81;100765.19;5008556;28;20131;-67
2024/04/07 01:47:34;;;;;;;2.38;0.77;;;;;;;12.13;50.52;100779.91;4997623;28;20494;-68
2024/04/07 01:50:00;;;;;;;5.88;0.85;;;;;;;12.31;49.78;100772.91;5008400;28;20039;-68
2024/04/07 01:52:27;;;;;;;3.00;0.50;;;;;;;12.52;49.04;100766.63;5012789;28;20060;-68
2024/04/07 01:54:52;;;;;;;2.38;0.88;;;;;;;12.63;48.69;100777.41;5008469;28;20068;-67
2024/04/07 01:57:21;;;;;;;2.75;1.05;;;;;;;12.61;48.09;100786.28;5014419;28;20140;-70
2024/04/07 01:59:46;;;;;;;2.85;0.98;;;;;;;12.77;47.06;100791.66;5018361;28;20477;-68
2024/04/07 02:02:12;;;;;;;6.82;1.60;;;;;;;12.96;46.68;100787.16;5006058;28;20435;-69
2024/04/07 02:04:38;;;;;;;3.03;1.50;;;;;;;13.04;46.43;100786.75;5016931;28;20029;-71
2024/04/07 02:07:04;;;;;;;1.67;0.50;;;;;;;13.10;46.14;100784.66;5004995;28;20039;-71
2024/04/07 02:09:34;;;;;;;6.60;0.93;;;;;;;13.20;45.78;100799.91;5015773;28;20033;-72
2024/04/07 02:12:02;;;;;;;5.63;1.50;;;;;;;13.21;45.44;100801.63;5006717;28;20511;-72
2024/04/07 02:14:31;;;;;;;2.17;1.02;;;;;;;13.21;45.05;100818.22;5015543;28;20168;-70
2024/04/07 02:16:56;;;;;;;4.10;0.52;;;;;;;13.06;45.43;100834.75;5006432;28;20033;-71
2024/04/07 02:19:22;;;;;;;3.33;0.98;;;;;;;13.28;45.20;100842.38;5015975;28;20083;-72
2024/04/07 02:21:47;;;;;;;6.57;1.33;;;;;;;13.22;45.19;100850.56;5016551;28;20127;-71
2024/04/07 02:24:13;;;;;;;5.85;0.80;;;;;;;13.40;44.66;100838.25;5004714;28;20620;-72
2024/04/07 02:26:38;;;;;;;6.35;0.80;;;;;;;13.33;44.92;100845.59;5016698;28;20585;-72
2024/04/07 02:29:04;;;;;;;5.38;0.80;;;;;;;13.15;45.37;100852.66;5006029;28;20824;-71
2024/04/07 02:31:29;;;;;;;3.58;0.90;;;;;;;13.15;45.87;100857.06;5016472;28;20441;-71
2024/04/07 02:33:55;;;;;;;1.85;0.93;;;;;;;13.09;46.23;100851.19;5004702;28;20048;-72
2024/04/07 02:36:20;;;;;;;7.75;0.88;;;;;;;13.04;46.35;100858.44;5013070;28;20030;-71
2024/04/07 02:38:47;;;;;;;2.05;0.60;;;;;;;12.99;46.23;100872.72;4999826;28;20028;-73
2024/04/07 02:41:13;;;;;;;1.70;1.00;;;;;;;12.89;46.12;100869.69;5012163;28;20041;-73
2024/04/07 02:43:38;;;;;;;2.90;1.05;;;;;;;13.19;45.44;100883.06;5012119;28;20049;-72
2024/04/07 02:48:48;;;;;;;4.82;0.77;;;;;;;13.00;45.38;100856.88;5029290;28;20086;-72
2024/04/07 02:51:14;;;;;;;8.95;1.40;;;;;;;13.39;44.50;100845.28;5009191;28;20795;-72
2024/04/07 02:53:39;;;;;;;3.65;0.68;;;;;;;13.53;44.21;100840.16;5014991;28;20099;-72
2024/04/07 02:56:06;;;;;;;1.67;0.60;;;;;;;13.49;44.31;100838.59;5003088;28;20037;-73
2024/04/07 02:58:31;;;;;;;2.22;0.50;;;;;;;13.70;43.97;100843.69;5023535;28;20037;-70
2024/04/07 03:01:04;;;;;;;3.33;0.50;;;;;;;13.47;44.38;100840.50;5031270;28;20028;-67
2024/04/07 03:03:29;;;;;;;5.80;0.70;;;;;;;13.52;44.65;100848.97;5029223;28;20501;-68
2024/04/07 03:05:56;;;;;;;5.57;0.80;;;;;;;13.85;43.83;100844.63;5015170;28;20028;-69
2024/04/07 03:08:22;;;;;;;3.97;0.63;;;;;;;13.61;44.57;100862.56;5015349;28;20045;-70
2024/04/07 03:10:56;;;;;;;6.68;1.30;;;;;;;13.28;45.70;100860.75;5013539;28;20033;-69
2024/04/07 03:13:22;;;;;;;4.85;0.68;;;;;;;13.28;45.46;100881.75;5015552;28;20461;-70
2024/04/07 03:15:48;;;;;;;1.73;0.28;;;;;;;13.01;46.43;100918.09;5011788;28;20064;-69
2024/04/07 03:18:14;;;;;;;6.82;0.70;;;;;;;13.35;45.92;100958.41;5011242;28;20060;-67
2024/04/07 03:20:40;;;;;;;3.10;0.22;;;;;;;13.17;46.43;100979.38;5033568;28;20115;-69
2024/04/07 03:23:06;;;;;;;4.53;0.40;;;;;;;12.60;47.62;100966.38;5026466;28;20236;-71
2024/04/07 03:25:31;;;;;;;9.00;0.57;;;;;;;12.67;47.66;100941.53;5032219;28;20043;-71
2024/04/07 03:27:56;;;;;;;4.43;0.70;;;;;;;12.41;48.21;100927.03;5032914;28;20071;-66
2024/04/07 03:30:22;;;;;;;5.70;0.40;;;;;;;12.23;48.96;100936.59;4996766;28;20112;-73
2024/04/07 03:32:48;;;;;;;1.65;0.30;;;;;;;12.31;49.18;100967.69;5035248;28;20605;-72
2024/04/07 03:35:14;;;;;;;2.92;0.50;;;;;;;12.86;48.46;100995.78;5007717;28;20047;-73
2024/04/07 03:37:39;;;;;;;4.07;0.85;;;;;;;11.93;50.53;100995.63;5012910;28;20765;-71
2024/04/07 03:40:05;;;;;;;1.65;0.35;;;;;;;11.85;50.73;100991.56;5012178;28;20036;-73
2024/04/07 03:42:31;;;;;;;1.65;0.28;;;;;;;12.01;51.21;100970.78;5033714;28;20040;-70
2024/04/07 03:44:57;;;;;;;2.90;0.50;;;;;;;12.12;51.56;100959.84;5036710;28;20673;-70
2024/04/07 03:47:22;;;;;;;3.08;0.38;;;;;;;11.51;53.12;100980.78;5005794;28;20051;-70
2024/04/07 03:49:48;;;;;;;3.55;0.22;;;;;;;11.75;52.81;100989.38;5007920;28;20035;-69
2024/04/07 03:52:13;;;;;;;4.13;0.30;;;;;;;11.44;53.79;101003.75;5027614;28;20043;-70
2024/04/07 03:54:40;;;;;;;2.65;0.30;;;;;;;11.63;53.31;101001.22;5032367;28;20874;-70
2024/04/07 03:57:06;;;;;;;4.35;0.30;;;;;;;11.00;55.41;101012.50;5008816;28;20041;-69
2024/04/07 03:59:31;;;;;;;1.40;0.55;;;;;;;11.32;54.51;101007.75;5011615;28;20047;-68
2024/04/07 04:02:00;;;;;;;2.75;0.15;;;;;;;11.77;53.40;100993.66;5024241;28;20032;-67
2024/04/07 04:04:28;;;;;;;3.15;0.20;;;;;;;11.48;53.75;100981.78;5033189;28;20036;-70
2024/04/07 04:06:54;;;;;;;0.75;0.10;;;;;;;11.10;54.52;100976.38;5009040;28;20080;-70
2024/04/07 04:09:19;;;;;;;2.15;0.20;;;;;;;11.50;53.67;100981.72;5027908;28;21168;-67
2024/04/07 04:11:49;;;;;;;2.05;0.20;;;;;;;11.38;53.92;100970.84;5036862;28;20036;-71
2024/04/07 04:14:15;;;;;;;1.27;0.17;;;;;;;11.67;53.03;100981.88;5025962;28;20615;-70
2024/04/07 04:16:41;;;;;;;4.75;0.43;;;;;;;11.53;53.31;100999.91;5033888;28;20609;-71
2024/04/07 04:19:07;;;;;;;3.17;0.10;;;;;;;11.62;53.28;100978.56;5026712;28;20063;-69
2024/04/07 04:21:36;;;;;;;0.90;0.13;;;;;;;11.94;52.71;100984.22;5034791;28;20044;-70
2024/04/07 04:24:03;;;;;;;1.33;0.40;;;;;;;11.77;53.06;100988.41;5010321;28;20223;-70
2024/04/07 04:26:28;;;;;;;2.00;0.20;;;;;;;11.76;53.44;101002.41;5028689;28;20367;-69
2024/04/07 04:28:54;;;;;;;3.20;0.43;;;;;;;11.66;53.66;100995.84;5019115;28;20553;-71
2024/04/07 04:31:19;;;;;;;7.28;0.28;;;;;;;11.68;54.11;100986.16;5029607;28;20617;-69
2024/04/07 04:33:45;;;;;;;1.45;0.52;;;;;;;11.44;54.64;100991.53;5029759;28;20043;-67
2024/04/07 04:36:13;;;;;;;2.25;0.20;;;;;;;11.33;55.54;101009.47;5042673;28;20029;-67
2024/04/07 04:38:38;;;;;;;3.63;0.40;;;;;;;11.24;56.02;101042.06;5025354;28;20044;-72
2024/04/07 04:41:05;;;;;;;5.57;0.43;;;;;;;11.19;55.90;101044.00;5033339;28;20821;-70
2024/04/07 04:43:30;;;;;;;0.77;0.17;;;;;;;10.90;57.07;101047.75;5035056;28;20063;-72
2024/04/07 04:46:09;;;;;;;1.63;0.10;;;;;;;11.18;56.27;101041.47;5034647;28;20036;-70
2024/04/07 04:48:36;;;;;;;0.80;0.10;;;;;;;10.85;56.91;101049.72;5039319;28;20049;-71
2024/04/07 04:51:03;;;;;;;1.40;0.30;;;;;;;10.34;58.40;101048.09;5036618;28;20204;-68
2024/04/07 04:53:31;;;;;;;1.65;0.20;;;;;;;10.74;57.55;101050.09;5037717;28;20036;-71
2024/04/07 04:56:03;;;;;;;1.73;0.45;;;;;;;10.83;57.61;101068.06;5035949;28;20619;-68
2024/04/07 04:58:33;;;;;;;4.30;0.10;;;;;;;10.58;58.00;101078.56;5014077;28;20676;-69
2024/04/07 05:00:59;;;;;;;2.08;0.28;;;;;;;10.62;57.77;101090.63;5038313;28;20013;-68
2024/04/07 05:03:27;;;;;;;3.58;0.28;;;;;;;10.11;58.68;101091.56;5029198;28;20434;-68
2024/04/07 05:05:52;;;;;;;1.77;0.10;;;;;;;10.31;58.71;101106.53;5017015;28;20109;-68
2024/04/07 05:08:17;;;;;;;2.13;0.90;;;;;;;9.76;60.52;101090.97;5023637;28;20517;-68
2024/04/07 05:10:43;;;;;;;2.15;0.20;;;;;;;10.33;58.90;101088.22;5037788;28;20111;-70
2024/04/07 05:13:08;;;;;;;3.80;0.00;;;;;;;10.45;58.76;101081.69;5027662;28;20561;-70
2024/04/07 05:15:34;;;;;;;0.45;0.25;;;;;;;10.27;58.91;101081.44;5036680;28;20033;-69
2024/04/07 05:17:59;;;;;;;1.42;0.10;;;;;;;10.59;58.25;101069.84;5035685;28;20071;-68
2024/04/07 05:20:25;;;;;;;3.00;0.20;;;;;;;10.84;57.80;101074.19;5031758;28;20563;-68
2024/04/07 05:22:50;;;;;;;0.30;0.10;;;;;;;10.64;57.80;101075.72;5017583;28;20041;-69
2024/04/07 05:25:16;;;;;;;1.60;0.30;;;;;;;10.17;58.73;101062.63;5028705;28;20143;-70
2024/04/07 05:27:41;;;;;;;1.38;0.10;;;;;;;10.17;59.05;101072.22;5032317;28;20127;-69
2024/04/07 05:30:08;;;;;;;0.65;0.10;;;;;;;10.13;59.29;101081.06;5032954;28;20040;-70
2024/04/07 05:32:34;;;;;;;1.05;0.10;;;;;;;10.26;59.16;101077.13;5035471;28;20039;-69
2024/04/07 05:35:00;;;;;;;2.47;0.40;;;;;;;10.66;57.92;101060.00;5007684;28;20032;-69
2024/04/07 05:37:26;;;;;;;1.33;0.10;;;;;;;10.64;58.18;101077.50;5006979;28;20744;-71
2024/04/07 05:39:52;;;;;;;2.60;0.10;;;;;;;10.18;59.46;101081.75;5035559;28;20044;-69
2024/04/07 05:42:18;;;;;;;1.85;0.20;;;;;;;10.38;58.93;101091.50;5028558;28;20037;-70
2024/04/07 05:44:44;;;;;;;1.95;0.20;;;;;;;10.18;59.68;101092.22;5005701;28;20119;-69
2024/04/07 05:47:10;;;;;;;1.38;0.32;;;;;;;10.48;58.93;101076.34;5030199;28;20689;-68
2024/04/07 05:49:37;;;;;;;1.27;0.20;;;;;;;10.50;58.91;101064.91;5028291;28;20028;-68
2024/04/07 05:52:04;;;;;;;1.40;0.20;;;;;;;10.10;59.72;101066.38;5016715;28;20040;-69
2024/04/07 05:54:30;;;;;;;3.85;0.20;;;;;;;10.42;58.76;101061.75;5026243;28;20025;-66
2024/04/07 05:56:55;;;;;;;3.05;0.20;;;;;;;10.56;58.65;101075.16;5033417;28;20954;-69
2024/04/07 05:59:22;;;;;;;0.57;0.10;;;;;;;10.38;59.58;101081.06;5024649;28;20206;-69
2024/04/07 06:01:48;;;;;;;1.33;0.10;;;;;;;10.60;58.45;101096.81;5035960;28;20040;-70
2024/04/07 06:04:14;;;;;;;1.90;0.20;;;;;;;10.40;58.85;101093.16;5007411;28;20070;-74
2024/04/07 06:06:42;;;;;;;1.85;0.30;;;;;;;10.10;59.31;101087.25;5011211;28;20127;-67
2024/04/07 06:09:09;;;;;;;3.05;0.10;;;;;;;10.31;58.67;101090.88;5033212;28;20044;-69
2024/04/07 06:11:36;;;;;;;1.60;0.50;;;;;;;10.46;58.40;101093.84;5014066;28;20157;-69
2024/04/07 06:14:03;;;;;;;4.38;0.20;;;;;;;10.86;57.45;101087.16;5034296;28;20711;-68
2024/04/07 06:16:28;;;;;;;2.70;0.20;;;;;;;10.48;57.95;101086.78;5024829;28;21271;-69
2024/04/07 06:18:54;;;;;;;3.35;0.25;;;;;;;10.56;57.50;101080.38;5055026;28;20029;-68
2024/04/07 06:21:23;;;;;;;3.03;0.90;;;;;;;10.64;57.45;101091.41;5041442;28;20110;-73
2024/04/07 06:23:49;;;;;;;1.35;0.10;;;;;;;10.80;56.72;101101.31;5035075;28;20151;-69
2024/04/07 06:26:23;;;;;;;0.90;0.10;;;;;;;11.19;55.95;101100.72;5007176;28;20071;-69
2024/04/07 06:28:51;;;;;;;0.45;0.10;;;;;;;11.06;55.83;101110.78;5034657;28;20108;-70
2024/04/07 06:31:17;;;;;;;0.80;0.20;;;;;;;11.00;56.08;101116.28;5005928;28;20040;-67
2024/04/07 06:33:42;;;;;;;1.27;0.20;;;;;;;10.61;56.92;101125.50;5034022;28;20047;-68
2024/04/07 06:36:08;;;;;;;0.90;0.10;;;;;;;10.93;56.06;101130.47;5031953;28;20481;-69
2024/04/07 06:38:34;;;;;;;2.65;0.50;;;;;;;11.12;55.51;101112.34;5023937;28;20032;-70
2024/04/07 06:41:00;;;;;;;2.25;0.20;;;;;;;11.64;54.43;101126.84;5033560;28;20046;-67
2024/04/07 06:43:25;;;;;;;0.82;0.10;;;;;;;11.99;53.87;101118.47;5024589;28;20106;-66
2024/04/07 06:45:51;;;;;;;2.50;0.20;;;;;;;12.03;53.88;101122.66;5013843;28;20020;-69
2024/04/07 06:48:17;;;;;;;1.05;0.10;;;;;;;12.92;50.94;101116.16;5027677;28;20090;-70
2024/04/07 06:50:42;;;;;;;0.98;0.20;;;;;;;12.94;50.71;101113.44;5032989;28;20036;-71
2024/04/07 06:53:08;;;;;;;1.65;0.10;;;;;;;13.07;50.16;101110.19;5031323;28;20044;-70
2024/04/07 06:55:33;;;;;;;4.75;0.20;;;;;;;12.42;51.70;101119.25;5024778;28;20032;-71
2024/04/07 06:57:59;;;;;;;2.95;0.20;;;;;;;12.11;52.91;101128.44;5031990;28;20112;-69
2024/04/07 07:00:24;;;;;;;1.98;0.20;;;;;;;11.34;53.59;101131.53;5026939;28;20127;-68
2024/04/07 07:02:50;;;;;;;1.73;0.30;;;;;;;12.33;52.21;101130.97;5031683;28;20045;-70
2024/04/07 07:05:16;;;;;;;3.35;0.82;;;;;;;11.84;52.90;101138.28;5028032;28;20051;-70
2024/04/07 07:07:42;;;;;;;0.50;0.10;;;;;;;11.60;54.09;101147.97;5029918;28;20046;-69
2024/04/07 07:10:07;;;;;;;1.05;0.10;;;;;;;12.36;51.73;101148.38;5015616;28;20032;-69
2024/04/07 07:12:33;;;;;;;0.50;0.10;;;;;;;12.46;51.43;101149.66;5023544;28;21236;-69
2024/04/07 07:14:59;;;;;;;2.42;0.30;;;;;;;12.47;51.17;101146.13;5030119;28;20056;-68
2024/04/07 07:17:25;;;;;;;2.90;0.40;;;;;;;14.19;48.47;101150.31;5025513;28;20754;-68
2024/04/07 07:19:51;;;;;;;1.23;0.20;;;;;;;16.35;42.62;101146.34;5007038;28;20032;-69
2024/04/07 07:22:17;;;;;;;2.15;0.10;;;;;;;15.98;42.08;101151.09;5029885;28;20045;-69
2024/04/07 07:24:42;;;;;;;4.50;0.63;;;;;;;16.26;41.65;101151.28;5028827;28;20036;-69
2024/04/07 07:27:08;;;;;;;1.38;0.82;;;;;;;14.29;44.64;101144.50;5033609;28;20040;-69
2024/04/07 07:29:34;;;;;;;2.75;0.10;;;;;;;14.16;45.83;101151.31;5025390;28;22259;-68
2024/04/07 07:32:00;;;;;;;4.10;0.30;;;;;;;14.46;45.64;101151.56;5017050;28;20151;-70
2024/04/07 07:34:26;;;;;;;1.90;0.10;;;;;;;14.54;45.84;101169.56;5024480;28;20786;-71
2024/04/07 07:36:52;;;;;;;1.60;0.10;;;;;;;15.71;42.88;101169.38;5030411;28;20029;-69
2024/04/07 07:39:20;;;;;;;1.15;0.10;;;;;;;16.70;41.68;101164.44;5029515;28;20044;-69
2024/04/07 07:41:46;;;;;;;1.02;0.10;;;;;;;18.27;36.95;101167.59;5029756;28;20055;-66
2024/04/07 07:44:11;;;;;;;2.85;0.40;;;;;;;18.35;36.11;101175.88;5033757;28;20037;-71
2024/04/07 07:46:37;;;;;;;1.20;0.10;;;;;;;17.82;38.17;101177.66;5022534;28;20086;-70
2024/04/07 07:49:05;;;;;;;0.95;0.20;;;;;;;20.17;34.11;101165.47;5033284;28;20025;-72
2024/04/07 07:51:31;;;;;;;0.43;0.10;;;;;;;21.14;32.61;101174.75;5004865;28;20512;-72
2024/04/07 07:53:56;;;;;;;0.60;0.10;;;;;;;21.96;30.86;101180.44;4999341;28;20045;-70
2024/04/07 07:56:22;;;;;;;0.47;0.10;;;;;;;21.15;31.53;101182.63;5024430;28;20032;-70
2024/04/07 07:58:48;;;;;;;1.45;0.10;;;;;;;22.09;30.80;101179.44;5005631;28;20036;-70
2024/04/07 08:01:14;;;;;;;4.47;0.52;;;;;;;20.44;32.05;101184.66;5029524;28;20036;-70
2024/04/07 08:03:39;;;;;;;1.10;0.20;;;;;;;21.25;31.34;101179.22;5021778;28;20242;-70
2024/04/07 08:06:05;;;;;;;1.67;0.10;;;;;;;19.41;34.27;101175.53;5029568;28;20068;-67
2024/04/07 08:08:30;;;;;;;1.45;0.20;;;;;;;19.98;33.87;101174.00;5005226;28;20072;-68
2024/04/07 08:10:57;;;;;;;0.38;0.10;;;;;;;20.23;31.65;101180.97;5035544;28;20057;-67
2024/04/07 08:13:23;;;;;;;0.47;0.10;;;;;;;19.93;33.38;101177.00;5006104;28;20083;-69
2024/04/07 08:15:49;;;;;;;2.17;0.43;;;;;;;19.84;32.77;101190.97;5035119;28;20039;-68
2024/04/07 08:18:15;;;;;;;1.05;0.00;;;;;;;19.51;34.12;101188.00;5032037;28;20076;-68
2024/04/07 08:20:42;;;;;;;1.45;0.10;;;;;;;18.41;35.72;101186.03;5025664;28;20160;-72
2024/04/07 08:23:08;;;;;;;0.95;0.10;;;;;;;17.69;36.87;101189.97;5033171;28;20052;-69
2024/04/07 08:25:34;;;;;;;1.95;0.20;;;;;;;18.02;35.74;101186.91;5005361;28;20047;-68
2024/04/07 08:28:00;;;;;;;1.60;0.10;;;;;;;17.42;38.44;101188.13;5032426;28;20048;-69
2024/04/07 08:30:26;;;;;;;2.15;0.30;;;;;;;19.28;34.45;101194.97;5027595;28;20048;-69
2024/04/07 08:32:52;;;;;;;0.80;0.10;;;;;;;18.36;35.61;101189.94;5026385;28;20055;-68
2024/04/07 08:35:17;;;;;;;2.28;0.10;;;;;;;18.33;35.51;101195.44;5028698;28;20028;-67
2024/04/07 08:37:43;;;;;;;1.35;0.10;;;;;;;18.54;35.41;101198.41;5020187;28;20037;-68
2024/04/07 08:40:08;;;;;;;4.32;0.10;;;;;;;18.68;35.33;101190.38;5030493;28;20044;-68
2024/04/07 08:42:34;;;;;;;2.78;0.10;;;;;;;19.71;34.34;101191.88;5001587;28;20028;-68
2024/04/07 08:45:02;;;;;;;0.93;0.10;;;;;;;20.06;34.16;101196.34;5022459;28;20036;-67
2024/04/07 08:47:28;;;;;;;0.55;0.13;;;;;;;18.45;35.03;101190.19;5023541;28;20143;-68
2024/04/07 08:49:55;;;;;;;1.25;0.15;;;;;;;18.51;36.32;101196.00;5027372;28;20036;-69
2024/04/07 08:52:21;;;;;;;0.75;0.10;;;;;;;18.02;34.30;101186.91;5024826;28;20039;-69
2024/04/07 08:54:47;;;;;;;4.00;0.20;;;;;;;17.45;35.73;101198.53;5023836;28;20029;-68
2024/04/07 08:57:14;;;;;;;1.25;0.10;;;;;;;16.97;37.94;101209.41;5031110;28;20052;-69
2024/04/07 08:59:40;;;;;;;1.10;0.10;;;;;;;15.90;38.38;101211.31;5020372;28;20028;-68
2024/04/07 09:02:07;;;;;;;0.70;0.10;;;;;;;16.73;37.75;101200.34;5031994;28;20553;-69
2024/04/07 09:04:33;;;;;;;0.80;0.15;;;;;;;16.04;38.71;101207.06;5022309;28;20020;-68
2024/04/07 09:07:01;;;;;;;1.00;0.10;;;;;;;16.86;37.88;101211.03;5024877;28;20056;-70
2024/04/07 09:09:27;;;;;;;1.58;0.10;;;;;;;15.72;39.11;101218.50;5022972;28;20150;-69
2024/04/07 09:11:52;;;;;;;0.93;0.30;;;;;;;15.52;39.47;101216.97;5026859;28;20330;-68
2024/04/07 09:14:18;;;;;;;1.13;0.32;;;;;;;15.12;39.85;101213.84;5030119;28;20064;-68
2024/04/07 09:16:44;;;;;;;3.30;0.30;;;;;;;15.47;40.01;101220.81;5020236;28;20033;-68
2024/04/07 09:19:10;;;;;;;3.90;0.38;;;;;;;15.86;39.41;101225.59;5011368;28;20044;-72
2024/04/07 09:21:36;;;;;;;1.30;0.65;;;;;;;15.01;40.56;101225.88;5023713;28;20439;-67
2024/04/07 09:24:02;;;;;;;4.05;0.63;;;;;;;15.67;38.39;101217.06;5025865;28;20028;-68
2024/04/07 09:26:27;;;;;;;1.95;0.50;;;;;;;15.05;39.89;101238.81;5005995;28;20024;-67
2024/04/07 09:28:53;;;;;;;3.42;0.10;;;;;;;15.71;39.22;101239.69;5029456;28;20604;-68
2024/04/07 09:31:19;;;;;;;3.22;0.20;;;;;;;15.31;39.01;101257.66;5014863;28;20032;-68
2024/04/07 09:33:47;;;;;;;1.40;0.40;;;;;;;16.12;38.16;101257.59;5008319;28;20269;-68
2024/04/07 09:36:13;;;;;;;1.88;0.10;;;;;;;16.87;37.61;101247.03;5027607;28;20044;-69
2024/04/07 09:38:38;;;;;;;0.75;0.10;;;;;;;17.44;37.29;101254.94;5027377;28;20152;-68
2024/04/07 09:41:04;;;;;;;3.13;0.15;;;;;;;16.40;37.77;101265.59;4999284;28;20097;-69
2024/04/07 09:43:31;;;;;;;1.70;0.20;;;;;;;17.01;36.79;101273.47;5014370;28;20040;-68
2024/04/07 09:45:57;;;;;;;1.75;0.20;;;;;;;16.93;36.67;101255.44;5032300;28;20127;-68
2024/04/07 09:48:25;;;;;;;1.98;0.10;;;;;;;16.67;37.10;101267.56;5038233;28;20123;-69
2024/04/07 09:51:10;;;;;;;1.27;0.60;;;;;;;15.57;38.34;101266.75;5035028;28;20035;-69
2024/04/07 09:53:58;;;;;;;2.10;0.20;;;;;;;16.57;36.38;101255.84;5024938;28;20131;-69
2024/04/07 09:56:28;;;;;;;3.97;0.80;;;;;;;16.32;37.44;101252.00;5008773;28;20078;-69
2024/04/07 09:58:54;;;;;;;2.50;0.30;;;;;;;17.10;36.71;101257.06;5029597;28;20047;-69
2024/04/07 10:01:21;;;;;;;0.55;0.10;;;;;;;15.71;38.28;101260.75;5030568;28;20040;-68
2024/04/07 10:03:50;;;;;;;1.63;0.40;;;;;;;16.06;37.09;101263.22;5022148;28;20560;-69
2024/04/07 10:06:18;;;;;;;1.23;0.30;;;;;;;16.07;37.86;101270.19;5009570;28;20166;-68
2024/04/07 10:08:45;;;;;;;2.55;0.20;;;;;;;16.67;37.22;101264.91;5002452;28;20064;-68
2024/04/07 10:11:17;;;;;;;2.67;0.10;;;;;;;16.58;37.02;101266.31;5013173;28;20032;-68
2024/04/07 10:13:43;;;;;;;0.57;0.10;;;;;;;16.79;37.85;101269.47;5007533;28;20045;-69
2024/04/07 10:16:09;;;;;;;0.60;0.10;;;;;;;16.34;37.11;101278.31;5001606;28;20158;-68
2024/04/07 10:18:38;;;;;;;2.58;0.10;;;;;;;16.47;37.58;101263.47;4990835;28;20421;-68
2024/04/07 10:21:07;;;;;;;1.58;0.10;;;;;;;16.79;37.30;101300.31;5027045;28;20455;-69
2024/04/07 10:23:35;;;;;;;2.13;0.20;;;;;;;17.60;35.50;101265.41;5001393;28;20048;-68
2024/04/07 10:26:03;;;;;;;2.03;0.30;;;;;;;18.08;34.44;101267.66;5023507;28;20044;-69
2024/04/07 10:28:53;;;;;;;1.48;0.10;;;;;;;16.91;35.94;101272.31;5017303;28;20051;-70
2024/04/07 10:31:36;;;;;;;1.92;0.10;;;;;;;17.22;35.57;101266.88;5023717;28;20033;-69
2024/04/07 10:34:02;;;;;;;3.22;0.20;;;;;;;17.15;35.80;101267.34;5023430;28;20041;-69
2024/04/07 10:36:31;;;;;;;0.95;0.20;;;;;;;16.30;37.18;101277.63;5037427;28;20563;-70
2024/04/07 10:38:57;;;;;;;0.22;0.10;;;;;;;16.18;37.47;101284.47;5012816;28;20040;-69
2024/04/07 10:41:27;;;;;;;5.38;0.10;;;;;;;15.99;38.99;101278.50;5034371;28;20035;-69
2024/04/07 10:43:53;;;;;;;1.67;0.22;;;;;;;16.40;37.96;101277.94;4999912;28;20036;-69
2024/04/07 10:46:21;;;;;;;1.30;0.10;;;;;;;18.60;35.22;101274.78;5032049;28;20230;-69
2024/04/07 10:48:48;;;;;;;1.27;0.10;;;;;;;18.31;33.71;101274.94;5023238;28;20045;-68
2024/04/07 10:51:16;;;;;;;2.67;0.43;;;;;;;17.97;35.13;101279.75;5011251;28;20052;-69
2024/04/07 10:53:57;;;;;;;1.00;0.10;;;;;;;18.26;32.78;101258.53;5014043;28;20206;-68
2024/04/07 10:56:23;;;;;;;1.10;0.10;;;;;;;17.97;33.78;101255.13;5029819;28;20394;-68
2024/04/07 10:58:49;;;;;;;2.05;0.10;;;;;;;17.91;33.91;101269.56;5026087;28;22248;-69
2024/04/07 11:01:15;;;;;;;1.88;0.20;;;;;;;17.59;33.39;101269.84;5005626;28;20040;-69
2024/04/07 11:03:41;;;;;;;4.03;0.43;;;;;;;17.46;33.00;101266.25;5023826;28;20480;-69
2024/04/07 11:06:07;;;;;;;1.50;0.10;;;;;;;18.26;33.69;101261.16;5027125;28;20060;-68
2024/04/07 11:08:34;;;;;;;1.05;0.10;;;;;;;17.19;34.41;101272.31;5025020;28;20468;-69
2024/04/07 11:11:02;;;;;;;1.88;0.10;;;;;;;15.61;35.65;101273.56;5028674;28;20047;-69
2024/04/07 11:13:28;;;;;;;1.23;0.10;;;;;;;17.53;33.69;101275.53;5015593;28;20068;-69
2024/04/07 11:15:55;;;;;;;1.35;0.45;;;;;;;17.35;34.22;101280.16;5001000;28;20028;-69
2024/04/07 11:18:21;;;;;;;1.55;0.25;;;;;;;17.60;32.92;101276.00;5011660;28;20498;-68
2024/04/07 11:20:48;;;;;;;0.60;0.20;;;;;;;17.50;32.05;101269.59;5008983;28;20115;-69
2024/04/07 11:23:15;;;;;;;1.65;0.05;;;;;;;18.08;32.48;101254.44;5026233;28;20044;-69
2024/04/07 11:25:42;;;;;;;2.13;0.10;;;;;;;18.69;31.18;101256.44;5026276;28;20032;-68